Time;durP1;ratioP1;P1;durP2;ratioP2;P2;SDS_P1;SDS_P2;PMS_P1;PMS_P2;Temp;Humidity;BMP_temperature;BMP_pressure;BME280_temperature;BME280_humidity;BME280_pressure;Samples;Min_cycle;Max_cycle;Signal;HPM_P1;HPM_P2
2021/12/30 00:01:33;;;;;;;;;;;;;;;11.48;81.27;101048.66;5048604;28;20015;-69
2021/12/30 00:03:59;;;;;;;;;;;;;;;11.48;81.33;101036.69;5051702;28;19976;-70
2021/12/30 00:06:24;;;;;;;;;;;;;;;11.49;81.46;101044.78;5044509;28;20367;-70
2021/12/30 00:08:53;;;;;;;;;;;;;;;11.50;81.25;101048.38;5051460;28;19966;-70
2021/12/30 00:11:18;;;;;;;;;;;;;;;11.50;81.42;101048.38;5051006;28;19925;-70
2021/12/30 00:13:45;;;;;;;;;;;;;;;11.50;81.70;101045.63;5044739;28;20430;-70
2021/12/30 00:16:14;;;;;;;;;;;;;;;11.51;81.59;101050.06;5048272;28;19956;-69
2021/12/30 00:18:39;;;;;;;;;;;;;;;11.52;80.89;101043.44;5049645;28;19924;-70
2021/12/30 00:21:05;;;;;;;;;;;;;;;11.52;81.55;101049.84;5051873;28;20066;-69
2021/12/30 00:23:30;;;;;;;;;;;;;;;11.53;81.57;101039.56;5051787;28;20210;-70
2021/12/30 00:25:55;;;;;;;;;;;;;;;11.52;81.50;101049.84;5047624;28;19929;-70
2021/12/30 00:28:24;;;;;;;;;;;;;;;11.52;81.50;101049.84;5049516;28;20360;-69
2021/12/30 00:30:51;;;;;;;;;;;;;;;11.53;81.64;101059.84;5041552;28;19920;-70
2021/12/30 00:33:16;;;;;;;;;;;;;;;11.54;81.65;101044.00;5044256;28;20065;-69
2021/12/30 00:35:42;;;;;;;;;;;;;;;11.52;81.19;101041.50;5047442;28;20453;-69
2021/12/30 00:38:07;;;;;;;;;;;;;;;11.55;81.29;101057.66;5052052;28;20439;-69
2021/12/30 00:40:32;;;;;;;;;;;;;;;11.57;81.31;101062.13;5050963;28;19928;-69
2021/12/30 00:42:59;;;;;;;;;;;;;;;11.58;81.54;101061.03;5051061;28;19947;-69
2021/12/30 00:45:25;;;;;;;;;;;;;;;11.59;81.52;101074.66;5049166;28;19956;-69
2021/12/30 00:47:50;;;;;;;;;;;;;;;11.59;81.41;101079.38;5053127;28;20375;-69
2021/12/30 00:50:15;;;;;;;;;;;;;;;11.59;81.62;101071.88;5049697;28;19925;-70
2021/12/30 00:52:40;;;;;;;;;;;;;;;11.60;81.59;101078.31;5054895;28;19990;-70
2021/12/30 00:55:07;;;;;;;;;;;;;;;11.62;81.26;101081.66;5050939;28;19964;-69
2021/12/30 00:57:32;;;;;;;;;;;;;;;11.61;81.46;101077.19;5055049;28;19927;-70
2021/12/30 00:59:57;;;;;;;;;;;;;;;11.61;81.27;101079.97;5054740;28;20398;-69
2021/12/30 01:02:22;;;;;;;;;;;;;;;11.60;81.53;101078.31;5054522;28;19925;-69
2021/12/30 01:04:47;;;;;;;;;;;;;;;11.62;81.40;101082.50;5049235;28;19928;-70
2021/12/30 01:07:13;;;;;;;;;;;;;;;11.63;81.55;101075.00;5054013;28;19921;-69
2021/12/30 01:09:38;;;;;;;;;;;;;;;11.63;81.46;101078.63;5054358;28;19928;-70
2021/12/30 01:12:03;;;;;;;;;;;;;;;11.65;81.56;101078.38;5052937;28;20396;-69
2021/12/30 01:14:31;;;;;;;;;;;;;;;11.66;81.41;101077.25;5052589;28;20371;-69
2021/12/30 01:17:00;;;;;;;;;;;;;;;11.67;81.46;101078.94;5054073;28;19932;-70
2021/12/30 01:19:44;;;;;;;;;;;;;;;11.68;81.27;101077.88;5053521;28;20722;-69
2021/12/30 01:22:14;;;;;;;;;;;;;;;11.68;81.40;101089.00;5050643;28;19920;-70
2021/12/30 01:24:40;;;;;;;;;;;;;;;11.69;81.79;101080.38;5052433;28;19920;-70
2021/12/30 01:27:05;;;;;;;;;;;;;;;11.71;81.44;101083.75;5049789;28;19921;-69
2021/12/30 01:29:31;;;;;;;;;;;;;;;11.72;81.66;101081.81;5054944;28;20680;-70
2021/12/30 01:31:56;;;;;;;;;;;;;;;11.72;81.53;101085.44;5051605;28;19928;-70
2021/12/30 01:34:21;;;;;;;;;;;;;;;11.74;81.69;101080.44;5052512;28;19925;-70
2021/12/30 01:36:47;;;;;;;;;;;;;;;11.73;82.11;101086.28;5055418;28;19924;-70
2021/12/30 01:39:12;;;;;;;;;;;;;;;11.72;81.77;101081.81;5052242;28;19927;-70
2021/12/30 01:41:40;;;;;;;;;;;;;;;11.74;81.93;101088.78;5050355;28;19924;-70
2021/12/30 01:44:05;;;;;;;;;;;;;;;11.75;81.97;101089.63;5053599;28;19928;-70
2021/12/30 01:46:41;;;;;;;;;;;;;;;11.77;82.03;101079.09;5054427;28;19921;-69
2021/12/30 01:49:06;;;;;;;;;;;;;;;11.78;81.91;101075.22;5051905;28;19924;-69
2021/12/30 01:51:31;;;;;;;;;;;;;;;11.78;81.92;101075.22;5045513;28;19921;-69
2021/12/30 01:53:57;;;;;;;;;;;;;;;11.79;82.54;101079.72;5052597;28;19925;-70
2021/12/30 01:56:22;;;;;;;;;;;;;;;11.80;82.28;101073.88;5051231;28;19990;-70
2021/12/30 01:58:48;;;;;;;;;;;;;;;11.81;82.41;101080.28;5052903;28;20031;-70
2021/12/30 02:01:13;;;;;;;;;;;;;;;11.82;82.48;101081.94;5053003;28;19921;-69
2021/12/30 02:03:38;;;;;;;;;;;;;;;11.83;82.45;101072.56;5054226;28;19931;-69
2021/12/30 02:06:03;;;;;;;;;;;;;;;11.84;82.64;101079.81;5051621;28;19929;-69
2021/12/30 02:08:28;;;;;;;;;;;;;;;11.85;82.17;101070.34;5048976;28;20016;-70
2021/12/30 02:10:54;;;;;;;;;;;;;;;11.86;82.63;101072.03;5053573;28;19921;-70
2021/12/30 02:13:19;;;;;;;;;;;;;;;11.88;82.04;101077.34;5052744;28;19920;-70
2021/12/30 02:15:45;;;;;;;;;;;;;;;11.90;82.30;101083.50;5053960;28;19920;-70
2021/12/30 02:18:10;;;;;;;;;;;;;;;11.92;82.30;101082.16;5052326;28;19974;-71
2021/12/30 02:20:37;;;;;;;;;;;;;;;11.93;82.48;101086.59;5053748;28;20283;-69
2021/12/30 02:23:03;;;;;;;;;;;;;;;11.94;82.13;101088.28;5054075;28;20677;-68
2021/12/30 02:25:29;;;;;;;;;;;;;;;11.94;82.59;101088.28;5050816;28;19925;-69
2021/12/30 02:27:54;;;;;;;;;;;;;;;11.95;83.02;101084.41;5048139;28;19924;-69
2021/12/30 02:30:19;;;;;;;;;;;;;;;11.96;82.80;101091.66;5053821;28;19967;-69
2021/12/30 02:32:44;;;;;;;;;;;;;;;11.96;83.04;101083.31;5052793;28;19959;-69
2021/12/30 02:35:09;;;;;;;;;;;;;;;11.96;82.40;101080.53;5052171;28;20007;-69
2021/12/30 02:37:35;;;;;;;;;;;;;;;11.98;83.11;101086.66;5053861;28;20272;-70
2021/12/30 02:40:00;;;;;;;;;;;;;;;11.97;82.65;101085.00;5053588;28;19920;-69
2021/12/30 02:42:25;;;;;;;;;;;;;;;11.98;82.78;101091.38;5046640;28;19925;-70
2021/12/30 02:44:51;;;;;;;;;;;;;;;11.99;82.90;101087.53;5047919;28;20379;-70
2021/12/30 02:47:16;;;;;;;;;;;;;;;12.00;82.63;101084.47;5051685;28;19921;-70
2021/12/30 02:49:41;;;;;;;;;;;;;;;12.02;82.39;101087.88;5051064;28;19982;-69
2021/12/30 02:52:07;;;;;;;;;;;;;;;12.03;82.82;101089.53;5052468;28;19927;-70
2021/12/30 02:54:32;;;;;;;;;;;;;;;12.03;82.60;101088.69;5052797;28;19921;-69
2021/12/30 02:56:57;;;;;;;;;;;;;;;12.04;83.16;101091.22;5051886;28;19924;-69
2021/12/30 02:59:22;;;;;;;;;;;;;;;12.05;82.91;101092.06;5053052;28;20023;-70
2021/12/30 03:01:49;;;;;;;;;;;;;;;12.07;82.65;101100.16;5045030;28;20024;-69
2021/12/30 03:04:14;;;;;;;;;;;;;;;12.08;82.48;101099.06;5052136;28;20396;-70
2021/12/30 03:06:41;;;;;;;;;;;;;;;12.09;82.88;101095.16;5052665;28;21402;-69
2021/12/30 03:09:07;;;;;;;;;;;;;;;12.09;83.02;101098.78;5051474;28;19921;-70
2021/12/30 03:11:32;;;;;;;;;;;;;;;12.10;82.89;101099.63;5051265;28;19928;-69
2021/12/30 03:13:59;;;;;;;;;;;;;;;12.11;82.68;101099.38;5044074;28;19929;-70
2021/12/30 03:16:29;;;;;;;;;;;;;;;12.12;82.58;101101.06;5050835;28;19921;-69
2021/12/30 03:18:54;;;;;;;;;;;;;;;12.13;82.56;101099.13;5048027;28;19924;-69
2021/12/30 03:21:21;;;;;;;;;;;;;;;12.14;82.76;101096.06;5047458;28;19924;-69
2021/12/30 03:23:46;;;;;;;;;;;;;;;12.15;83.06;101099.72;5051142;28;19921;-70
2021/12/30 03:26:12;;;;;;;;;;;;;;;12.16;82.86;101104.16;5048654;28;19930;-70
2021/12/30 03:28:40;;;;;;;;;;;;;;;12.16;83.14;101112.53;5052954;28;19921;-70
2021/12/30 03:31:05;;;;;;;;;;;;;;;12.16;83.01;101110.56;5051795;28;19955;-70
2021/12/30 03:33:31;;;;;;;;;;;;;;;12.15;83.14;101108.91;5050297;28;19956;-70
2021/12/30 03:35:59;;;;;;;;;;;;;;;12.16;83.13;101095.81;5045755;28;19936;-70
2021/12/30 03:38:24;;;;;;;;;;;;;;;12.17;83.15;101100.28;5051904;28;19921;-70
2021/12/30 03:40:49;;;;;;;;;;;;;;;12.16;83.28;101099.44;5051515;28;20453;-70
2021/12/30 03:43:15;;;;;;;;;;;;;;;12.17;83.43;101103.06;5049477;28;20508;-70
2021/12/30 03:45:40;;;;;;;;;;;;;;;12.17;83.37;101097.50;5042809;28;19932;-70
2021/12/30 03:48:05;;;;;;;;;;;;;;;12.17;83.42;101106.69;5051562;28;19920;-70
2021/12/30 03:50:30;;;;;;;;;;;;;;;12.18;83.41;101099.16;5047037;28;19928;-70
2021/12/30 03:52:57;;;;;;;;;;;;;;;12.18;82.98;101104.75;5048871;28;20004;-70
2021/12/30 03:55:23;;;;;;;;;;;;;;;12.18;83.60;101101.97;5048296;28;19975;-70
2021/12/30 03:57:49;;;;;;;;;;;;;;;12.20;83.68;101099.78;5051173;28;19924;-70
2021/12/30 04:00:14;;;;;;;;;;;;;;;12.19;83.61;101103.66;5051189;28;19929;-70
2021/12/30 04:02:40;;;;;;;;;;;;;;;12.21;83.97;101109.78;5051497;28;19924;-70
2021/12/30 04:05:06;;;;;;;;;;;;;;;12.20;83.93;101106.19;5048438;28;20721;-70
2021/12/30 04:07:31;;;;;;;;;;;;;;;12.22;84.51;101103.13;5049023;28;19921;-70
2021/12/30 04:09:56;;;;;;;;;;;;;;;12.22;84.02;101108.69;5050285;28;19920;-70
2021/12/30 04:12:22;;;;;;;;;;;;;;;12.22;84.50;101104.00;5050638;28;20364;-70
2021/12/30 04:14:47;;;;;;;;;;;;;;;12.24;84.56;101101.78;5050630;28;19925;-70
2021/12/30 04:17:13;;;;;;;;;;;;;;;12.25;84.29;101099.84;5050898;28;19933;-70
2021/12/30 04:19:38;;;;;;;;;;;;;;;12.27;84.35;101111.56;5049966;28;19925;-70
2021/12/30 04:22:03;;;;;;;;;;;;;;;12.28;84.47;101125.22;5048485;28;20012;-70
2021/12/30 04:24:28;;;;;;;;;;;;;;;12.30;85.32;101124.97;5046465;28;20364;-70
2021/12/30 04:26:53;;;;;;;;;;;;;;;12.30;84.68;101119.41;5049374;28;19925;-70
2021/12/30 04:29:19;;;;;;;;;;;;;;;12.33;84.58;101120.81;5052250;28;19944;-71
2021/12/30 04:31:44;;;;;;;;;;;;;;;12.33;84.64;101127.22;5050267;28;19982;-71
2021/12/30 04:34:13;;;;;;;;;;;;;;;12.34;84.99;101134.47;5042266;28;19921;-70
2021/12/30 04:36:39;;;;;;;;;;;;;;;12.36;84.67;101132.28;5051357;28;20008;-70
2021/12/30 04:39:04;;;;;;;;;;;;;;;12.38;84.75;101120.88;5044325;28;20023;-70
2021/12/30 04:41:29;;;;;;;;;;;;;;;12.39;85.14;101126.19;5045355;28;19921;-70
2021/12/30 04:43:55;;;;;;;;;;;;;;;12.40;85.29;101124.25;5042831;28;19936;-70
2021/12/30 04:46:20;;;;;;;;;;;;;;;12.42;84.58;101124.84;5051550;28;20416;-70
2021/12/30 04:48:45;;;;;;;;;;;;;;;12.43;85.26;101127.34;5043228;28;19929;-70
2021/12/30 04:51:10;;;;;;;;;;;;;;;12.45;84.56;101139.06;5046756;28;19921;-70
2021/12/30 04:53:35;;;;;;;;;;;;;;;12.46;84.86;101135.19;5045940;28;20269;-70
2021/12/30 04:56:01;;;;;;;;;;;;;;;12.48;85.23;101141.34;5050595;28;19925;-70
2021/12/30 04:58:26;;;;;;;;;;;;;;;12.47;84.85;101136.88;5049203;28;19974;-70
2021/12/30 05:00:51;;;;;;;;;;;;;;;12.50;84.80;101132.75;5050805;28;19921;-70
2021/12/30 05:03:16;;;;;;;;;;;;;;;12.52;85.45;101141.66;5048671;28;20015;-70
2021/12/30 05:05:47;;;;;;;;;;;;;;;12.52;85.28;101139.72;5051009;28;20403;-70
2021/12/30 05:08:12;;;;;;;;;;;;;;;12.52;84.64;101136.94;5044789;28;19927;-70
2021/12/30 05:10:38;;;;;;;;;;;;;;;12.53;84.69;101141.38;5051624;28;19920;-70
2021/12/30 05:13:04;;;;;;;;;;;;;;;12.55;84.85;101141.16;5051257;28;20296;-70
2021/12/30 05:15:29;;;;;;;;;;;;;;;12.55;85.01;101143.94;5045163;28;19925;-70
2021/12/30 05:17:55;;;;;;;;;;;;;;;12.57;85.69;101155.63;5047742;28;20321;-70
2021/12/30 05:20:20;;;;;;;;;;;;;;;12.57;85.21;101152.00;5052100;28;19921;-70
2021/12/30 05:22:45;;;;;;;;;;;;;;;12.59;85.44;101155.41;5041283;28;19928;-70
2021/12/30 05:25:11;;;;;;;;;;;;;;;12.59;85.34;101158.19;5051929;28;19917;-71
2021/12/30 05:27:37;;;;;;;;;;;;;;;12.59;86.08;101164.59;5047847;28;19920;-71
2021/12/30 05:30:03;;;;;;;;;;;;;;;12.61;85.54;101161.53;5049976;28;20442;-71
2021/12/30 05:32:28;;;;;;;;;;;;;;;12.60;85.95;101159.84;5045929;28;19931;-71
2021/12/30 05:34:53;;;;;;;;;;;;;;;12.61;85.22;101179.06;5054941;28;19920;-71
2021/12/30 05:37:19;;;;;;;;;;;;;;;12.64;85.57;101169.38;5050864;28;20454;-71
2021/12/30 05:39:44;;;;;;;;;;;;;;;12.65;85.73;101179.41;5053991;28;19921;-71
2021/12/30 05:42:09;;;;;;;;;;;;;;;12.65;85.31;101177.47;5046212;28;20300;-71
2021/12/30 05:44:34;;;;;;;;;;;;;;;12.66;85.46;101187.53;5042768;28;19921;-71
2021/12/30 05:46:59;;;;;;;;;;;;;;;12.67;85.48;101194.75;5051585;28;19940;-71
2021/12/30 05:49:24;;;;;;;;;;;;;;;12.69;85.00;101206.50;5053832;28;19921;-70
2021/12/30 05:51:50;;;;;;;;;;;;;;;12.70;85.63;101201.78;5046418;28;19921;-70
2021/12/30 05:54:15;;;;;;;;;;;;;;;12.71;85.19;101197.88;5055237;28;19928;-70
2021/12/30 05:56:40;;;;;;;;;;;;;;;12.72;85.66;101205.97;5048775;28;20054;-70
2021/12/30 05:59:05;;;;;;;;;;;;;;;12.73;85.34;101204.00;5049524;28;19983;-70
2021/12/30 06:01:30;;;;;;;;;;;;;;;12.74;85.31;101202.94;5042194;28;19978;-69
2021/12/30 06:03:56;;;;;;;;;;;;;;;12.74;85.06;101197.38;5033273;28;19921;-70
2021/12/30 06:06:21;;;;;;;;;;;;;;;12.76;85.27;101192.38;5025065;28;19976;-70
2021/12/30 06:08:46;;;;;;;;;;;;;;;12.76;84.76;101184.00;5024426;28;19925;-70
2021/12/30 06:11:11;;;;;;;;;;;;;;;12.77;85.17;101188.47;5032377;28;19983;-69
2021/12/30 06:13:36;;;;;;;;;;;;;;;12.78;84.86;101187.38;5032469;28;19921;-70
2021/12/30 06:16:01;;;;;;;;;;;;;;;12.78;84.87;101191.00;5031298;28;20345;-70
2021/12/30 06:18:27;;;;;;;;;;;;;;;12.78;85.43;101195.75;5023324;28;20015;-70
2021/12/30 06:20:52;;;;;;;;;;;;;;;12.80;85.12;101207.44;5030923;28;19957;-69
2021/12/30 06:23:17;;;;;;;;;;;;;;;12.80;84.74;101209.41;5030142;28;19928;-70
2021/12/30 06:25:42;;;;;;;;;;;;;;;12.81;84.40;101203.59;5028084;28;19951;-70
2021/12/30 06:28:07;;;;;;;;;;;;;;;12.80;84.65;101201.03;5029903;28;19925;-70
2021/12/30 06:30:33;;;;;;;;;;;;;;;12.81;84.72;101200.81;5031337;28;19929;-70
2021/12/30 06:32:58;;;;;;;;;;;;;;;12.81;84.82;101200.81;5031257;28;19968;-69
2021/12/30 06:35:23;;;;;;;;;;;;;;;12.82;84.77;101202.47;5033382;28;19933;-69
2021/12/30 06:37:48;;;;;;;;;;;;;;;12.82;84.58;101196.06;5027314;28;19936;-70
2021/12/30 06:40:14;;;;;;;;;;;;;;;12.83;84.83;101204.16;5029160;28;19975;-70
2021/12/30 06:42:41;;;;;;;;;;;;;;;12.84;84.12;101203.03;5025284;28;19921;-69
2021/12/30 06:45:06;;;;;;;;;;;;;;;12.84;84.46;101210.56;5024470;28;20391;-69
2021/12/30 06:47:32;;;;;;;;;;;;;;;12.85;84.20;101215.03;5023564;28;19967;-70
2021/12/30 06:50:01;;;;;;;;;;;;;;;12.85;84.73;101218.69;5027760;28;19925;-71
2021/12/30 06:52:26;;;;;;;;;;;;;;;12.85;84.11;101213.13;5033381;28;19931;-70
2021/12/30 06:54:51;;;;;;;;;;;;;;;12.87;84.27;101221.19;5027041;28;19929;-70
2021/12/30 06:57:16;;;;;;;;;;;;;;;12.86;84.57;101225.94;5031494;28;20346;-71
2021/12/30 06:59:42;;;;;;;;;;;;;;;12.88;84.66;101222.88;5030370;28;19944;-68
2021/12/30 07:02:07;;;;;;;;;;;;;;;12.90;84.48;101231.84;5032218;28;20000;-68
2021/12/30 07:04:32;;;;;;;;;;;;;;;12.92;84.02;101238.81;5045907;28;20360;-67
2021/12/30 07:06:58;;;;;;;;;;;;;;;12.93;84.20;101239.66;5036606;28;19932;-67
2021/12/30 07:09:23;;;;;;;;;;;;;;;12.93;84.27;101240.50;5039504;28;19983;-66
2021/12/30 07:11:49;;;;;;;;;;;;;;;12.93;84.32;101251.66;5046539;28;19971;-65
2021/12/30 07:14:18;;;;;;;;;;;;;;;12.92;84.33;101255.53;5044522;28;20376;-66
2021/12/30 07:16:43;;;;;;;;;;;;;;;12.91;84.19;101244.66;5034804;28;20557;-68
2021/12/30 07:19:12;;;;;;;;;;;;;;;12.92;83.95;101252.75;5045779;28;19920;-67
2021/12/30 07:21:38;;;;;;;;;;;;;;;12.93;84.01;101251.66;5044947;28;19990;-68
2021/12/30 07:24:03;;;;;;;;;;;;;;;12.93;84.13;101265.59;5046601;28;19921;-68
2021/12/30 07:26:28;;;;;;;;;;;;;;;12.94;83.95;101272.84;5040812;28;19928;-68
2021/12/30 07:28:53;;;;;;;;;;;;;;;12.94;84.02;101266.44;5042149;28;20105;-68
2021/12/30 07:31:18;;;;;;;;;;;;;;;12.94;84.24;101278.41;5042602;28;19921;-68
2021/12/30 07:33:44;;;;;;;;;;;;;;;12.94;83.97;101278.41;5039438;28;19986;-68
2021/12/30 07:36:09;;;;;;;;;;;;;;;12.93;84.23;101271.16;5036393;28;20003;-66
2021/12/30 07:38:34;;;;;;;;;;;;;;;12.94;84.09;101267.25;5039079;28;20382;-66
2021/12/30 07:40:59;;;;;;;;;;;;;;;12.94;84.44;101275.63;5043573;28;19921;-66
2021/12/30 07:43:25;;;;;;;;;;;;;;;12.95;84.26;101291.22;5036529;28;19967;-66
2021/12/30 07:45:51;;;;;;;;;;;;;;;12.95;84.35;101288.44;5042407;28;19920;-67
2021/12/30 07:48:18;;;;;;;;;;;;;;;12.95;84.45;101280.09;5038097;28;20433;-66
2021/12/30 07:50:43;;;;;;;;;;;;;;;12.95;84.29;101279.25;5041321;28;19969;-66
2021/12/30 07:53:08;;;;;;;;;;;;;;;12.96;84.48;101290.13;5040742;28;19925;-64
2021/12/30 07:55:33;;;;;;;;;;;;;;;12.96;84.50;101292.91;5049159;28;20003;-65
2021/12/30 07:57:58;;;;;;;;;;;;;;;12.97;84.45;101289.03;5042571;28;20411;-65
2021/12/30 08:00:24;;;;;;;;;;;;;;;12.98;84.29;101301.88;5039957;28;20016;-66
2021/12/30 08:02:49;;;;;;;;;;;;;;;12.99;84.13;101286.81;5031354;28;20012;-66
2021/12/30 08:05:16;;;;;;;;;;;;;;;12.99;83.81;101272.91;5028588;28;19959;-66
2021/12/30 08:07:42;;;;;;;;;;;;;;;13.00;83.87;101280.16;5022353;28;20016;-64
2021/12/30 08:10:12;;;;;;;;;;;;;;;13.00;84.19;101277.34;5020380;28;20828;-66
2021/12/30 08:12:38;;;;;;;;;;;;;;;13.02;84.13;101285.47;5021470;28;19929;-65
2021/12/30 08:15:03;;;;;;;;;;;;;;;13.02;83.67;101303.03;5016278;28;20024;-64
2021/12/30 08:17:28;;;;;;;;;;;;;;;13.03;83.74;101304.72;5027569;28;20430;-66
2021/12/30 08:19:54;;;;;;;;;;;;;;;13.04;83.87;101302.75;5025472;28;19921;-65
2021/12/30 08:22:19;;;;;;;;;;;;;;;13.05;83.43;101306.38;5024471;28;20387;-65
2021/12/30 08:24:44;;;;;;;;;;;;;;;13.04;84.10;101313.91;5024666;28;19922;-65
2021/12/30 08:27:12;;;;;;;;;;;;;;;13.06;83.72;101313.69;5021497;28;20437;-65
2021/12/30 08:29:37;;;;;;;;;;;;;;;13.05;83.87;101318.41;5017313;28;20016;-66
2021/12/30 08:32:08;;;;;;;;;;;;;;;13.05;83.74;101311.97;5025151;28;20015;-66
2021/12/30 08:34:33;;;;;;;;;;;;;;;13.06;83.45;101302.53;5024716;28;19932;-64
2021/12/30 08:36:58;;;;;;;;;;;;;;;13.07;83.38;101320.91;5020143;28;19925;-63
2021/12/30 08:39:23;;;;;;;;;;;;;;;13.08;83.60;101311.44;5016997;28;19968;-64
2021/12/30 08:41:48;;;;;;;;;;;;;;;13.08;83.57;101323.44;5019790;28;19929;-64
2021/12/30 08:44:14;;;;;;;;;;;;;;;13.09;83.48;101322.38;5022545;28;20373;-64
2021/12/30 08:46:39;;;;;;;;;;;;;;;13.11;83.62;101325.72;5022278;28;19929;-64
2021/12/30 08:49:04;;;;;;;;;;;;;;;13.13;83.32;101333.84;5027738;28;20067;-63
2021/12/30 08:51:29;;;;;;;;;;;;;;;13.11;83.44;101334.06;5025426;28;19921;-64
2021/12/30 08:53:56;;;;;;;;;;;;;;;13.12;83.51;101337.72;5021072;28;19964;-65
2021/12/30 08:56:21;;;;;;;;;;;;;;;13.13;83.80;101345.00;5028027;28;20395;-64
2021/12/30 08:58:46;;;;;;;;;;;;;;;13.13;83.68;101358.94;5023031;28;19922;-64
2021/12/30 09:01:11;;;;;;;;;;;;;;;13.13;83.63;101361.72;5017553;28;19922;-65
2021/12/30 09:03:36;;;;;;;;;;;;;;;13.14;83.46;101358.66;5038619;28;20049;-65
2021/12/30 09:06:02;;;;;;;;;;;;;;;13.15;83.66;101362.28;5044745;28;20503;-66
2021/12/30 09:08:27;;;;;;;;;;;;;;;13.16;83.32;101358.38;5041135;28;20122;-64
2021/12/30 09:10:52;;;;;;;;;;;;;;;13.17;83.75;101352.56;5047818;28;20015;-66
2021/12/30 09:13:21;;;;;;;;;;;;;;;13.18;83.51;101361.78;5039938;28;19936;-66
2021/12/30 09:15:46;;;;;;;;;;;;;;;13.20;83.64;101351.19;5042518;28;19925;-67
2021/12/30 09:18:12;;;;;;;;;;;;;;;13.22;83.69;101354.56;5047212;28;19921;-66
2021/12/30 09:20:39;;;;;;;;;;;;;;;13.24;83.43;101363.53;5047234;28;19924;-66
2021/12/30 09:23:05;;;;;;;;;;;;;;;13.27;83.29;101361.09;5048854;28;19964;-67
2021/12/30 09:25:31;;;;;;;;;;;;;;;13.31;83.55;101361.41;5050898;28;20365;-66
2021/12/30 09:27:57;;;;;;;;;;;;;;;13.31;83.51;101361.41;5052375;28;20017;-67
2021/12/30 09:30:23;;;;;;;;;;;;;;;13.32;83.64;101365.88;5051257;28;20007;-66
2021/12/30 09:32:49;;;;;;;;;;;;;;;13.35;83.22;101382.09;5047590;28;19978;-65
2021/12/30 09:35:15;;;;;;;;;;;;;;;13.37;83.07;101385.47;5042937;28;20000;-65
2021/12/30 09:37:40;;;;;;;;;;;;;;;13.41;83.08;101386.66;5051946;28;19921;-64
2021/12/30 09:40:10;;;;;;;;;;;;;;;13.42;83.22;101379.97;5041407;28;20321;-66
2021/12/30 09:42:36;;;;;;;;;;;;;;;13.42;82.94;101385.53;5046231;28;19927;-66
2021/12/30 09:45:02;;;;;;;;;;;;;;;13.44;82.70;101386.13;5051397;28;19925;-66
2021/12/30 09:47:27;;;;;;;;;;;;;;;13.46;82.58;101397.03;5047438;28;20031;-66
2021/12/30 09:49:53;;;;;;;;;;;;;;;13.45;82.56;101398.97;5041988;28;20514;-66
2021/12/30 09:52:19;;;;;;;;;;;;;;;13.47;82.42;101413.47;5042200;28;19966;-66
2021/12/30 09:54:44;;;;;;;;;;;;;;;13.48;82.54;101395.66;5044586;28;19921;-65
2021/12/30 09:57:09;;;;;;;;;;;;;;;13.49;82.61;101402.09;5045877;28;19920;-66
2021/12/30 09:59:35;;;;;;;;;;;;;;;13.49;82.14;101402.91;5049134;28;19978;-66
2021/12/30 10:02:00;;;;;;;;;;;;;;;13.50;82.10;101398.19;5049021;28;20315;-66
2021/12/30 10:04:30;;;;;;;;;;;;;;;13.51;81.98;101391.50;5045946;28;19929;-66
2021/12/30 10:06:56;;;;;;;;;;;;;;;13.51;81.96;101389.53;5042307;28;19917;-66
2021/12/30 10:09:29;;;;;;;;;;;;;;;13.53;82.02;101402.41;5047602;28;19940;-66
2021/12/30 10:12:00;;;;;;;;;;;;;;;13.51;81.94;101397.91;5045913;28;19917;-66
2021/12/30 10:14:30;;;;;;;;;;;;;;;13.53;81.81;101385.69;5042521;28;20299;-66
2021/12/30 10:17:14;;;;;;;;;;;;;;;13.53;81.67;101396.84;5048547;28;19917;-66
2021/12/30 10:19:39;;;;;;;;;;;;;;;13.54;81.57;101396.56;5041714;28;20379;-65
2021/12/30 10:22:08;;;;;;;;;;;;;;;13.55;81.96;101400.19;5047150;28;19921;-65
2021/12/30 10:24:34;;;;;;;;;;;;;;;13.57;81.65;101404.41;5049386;28;19977;-65
2021/12/30 10:26:59;;;;;;;;;;;;;;;13.59;81.54;101406.94;5046747;28;19921;-65
2021/12/30 10:29:24;;;;;;;;;;;;;;;13.58;81.66;101408.88;5042223;28;19972;-65
2021/12/30 10:31:50;;;;;;;;;;;;;;;13.59;81.49;101413.34;5048191;28;19967;-66
2021/12/30 10:34:17;;;;;;;;;;;;;;;13.62;81.63;101409.22;5051765;28;20295;-65
2021/12/30 10:36:43;;;;;;;;;;;;;;;13.61;81.47;101404.75;5050049;28;19924;-64
2021/12/30 10:39:22;;;;;;;;;;;;;;;13.61;81.09;101394.44;5049065;28;19932;-65
2021/12/30 10:41:49;;;;;;;;;;;;;;;13.63;81.34;101402.53;5048564;28;19920;-66
2021/12/30 10:44:15;;;;;;;;;;;;;;;13.64;81.17;101405.06;5042930;28;20440;-65
2021/12/30 10:46:40;;;;;;;;;;;;;;;13.64;80.99;101404.22;5046935;28;20070;-65
2021/12/30 10:49:10;;;;;;;;;;;;;;;13.65;81.39;101406.75;5047335;28;19979;-65
2021/12/30 10:51:43;;;;;;;;;;;;;;;13.68;80.99;101408.19;5044795;28;19917;-65
2021/12/30 10:54:13;;;;;;;;;;;;;;;13.69;81.22;101409.88;5047611;28;19944;-63
2021/12/30 10:56:39;;;;;;;;;;;;;;;13.70;80.94;101398.44;5044544;28;19956;-64
2021/12/30 10:59:08;;;;;;;;;;;;;;;13.71;81.10;101414.06;5050048;28;19921;-64
2021/12/30 11:01:36;;;;;;;;;;;;;;;13.72;80.83;101401.81;5047887;28;19921;-63
2021/12/30 11:04:01;;;;;;;;;;;;;;;13.74;80.64;101407.13;5048612;28;20352;-63
2021/12/30 11:06:28;;;;;;;;;;;;;;;13.75;80.77;101394.84;5045359;28;19935;-65
2021/12/30 11:09:04;;;;;;;;;;;;;;;13.74;80.67;101399.59;5051314;28;19921;-64
2021/12/30 11:11:29;;;;;;;;;;;;;;;13.77;80.37;101392.66;5044776;28;20368;-64
2021/12/30 11:14:08;;;;;;;;;;;;;;;13.84;80.62;101404.47;5049010;28;19929;-63
2021/12/30 11:16:51;;;;;;;;;;;;;;;13.86;80.66;101407.81;5050495;28;19921;-63
2021/12/30 11:19:17;;;;;;;;;;;;;;;13.85;80.10;101406.16;5047875;28;19921;-64
2021/12/30 11:21:44;;;;;;;;;;;;;;;13.86;80.53;101407.81;5049222;28;19925;-63
2021/12/30 11:24:09;;;;;;;;;;;;;;;13.86;80.60;101393.88;5046964;28;19971;-65
2021/12/30 11:26:35;;;;;;;;;;;;;;;13.89;80.27;101396.16;5045623;28;19921;-62
2021/12/30 11:29:01;;;;;;;;;;;;;;;13.91;79.98;101396.75;5047222;28;19935;-67
2021/12/30 11:31:28;;;;;;;;;;;;;;;13.92;80.18;101405.94;5045447;28;19978;-68
2021/12/30 11:33:53;;;;;;;;;;;;;;;13.94;80.37;101407.34;5047602;28;19929;-63
2021/12/30 11:36:18;;;;;;;;;;;;;;;13.95;80.12;101395.09;5047017;28;19974;-63
2021/12/30 11:38:44;;;;;;;;;;;;;;;13.97;79.83;101406.00;5046727;28;20477;-62
2021/12/30 11:41:16;;;;;;;;;;;;;;;13.98;80.11;101411.31;5045759;28;19967;-66
2021/12/30 11:43:42;;;;;;;;;;;;;;;14.00;79.96;101406.31;5047682;28;19939;-66
2021/12/30 11:46:07;;;;;;;;;;;;;;;14.04;79.96;101414.16;5052231;28;20039;-66
2021/12/30 11:48:38;;;;;;;;;;;;;;;14.06;79.71;101409.16;5047237;28;20403;-66
2021/12/30 11:51:08;;;;;;;;;;;;;;;14.11;80.23;101409.19;5047155;28;20393;-66
2021/12/30 11:53:33;;;;;;;;;;;;;;;14.17;79.46;101399.78;5044543;28;19921;-66
2021/12/30 11:56:07;;;;;;;;;;;;;;;14.21;79.80;101404.56;5050417;28;20015;-66
2021/12/30 11:58:42;;;;;;;;;;;;;;;14.29;79.52;101411.63;5043376;28;20469;-66
2021/12/30 12:01:10;;;;;;;;;;;;;;;14.32;79.73;101411.09;5047381;28;19925;-65
2021/12/30 12:03:40;;;;;;;;;;;;;;;14.37;79.42;101410.31;5046941;28;19932;-65
2021/12/30 12:06:28;;;;;;;;;;;;;;;14.38;79.41;101404.47;5044188;28;19925;-65
2021/12/30 12:09:08;;;;;;;;;;;;;;;14.38;79.09;101410.06;5038521;28;20377;-63
2021/12/30 12:11:40;;;;;;;;;;;;;;;14.36;79.14;101415.06;5046328;28;19964;-64
2021/12/30 12:14:12;;;;;;;;;;;;;;;14.35;78.57;101412.53;5048699;28;19932;-63
2021/12/30 12:16:52;;;;;;;;;;;;;;;14.36;78.94;101423.44;5045097;28;19921;-63
2021/12/30 12:19:19;;;;;;;;;;;;;;;14.38;78.85;101428.75;5041886;28;19929;-65
2021/12/30 12:21:47;;;;;;;;;;;;;;;14.36;78.76;101431.81;5045018;28;20372;-66
2021/12/30 12:24:21;;;;;;;;;;;;;;;14.36;78.50;101431.81;5041913;28;19986;-65
2021/12/30 12:26:47;;;;;;;;;;;;;;;14.34;78.89;101424.78;5044287;28;19987;-67
2021/12/30 12:29:24;;;;;;;;;;;;;;;14.32;78.91;101422.28;5047311;28;20386;-65
2021/12/30 12:31:57;;;;;;;;;;;;;;;14.31;78.75;101426.19;5046622;28;20357;-65